Time;durP1;ratioP1;P1;durP2;ratioP2;P2;SDS_P1;SDS_P2;PMS_P1;PMS_P2;Temp;Humidity;BMP_temperature;BMP_pressure;BME280_temperature;BME280_humidity;BME280_pressure;Samples;Min_cycle;Max_cycle;Signal;HPM_P1;HPM_P2
2023/01/20 00:00:27;;;;;;;4.20;3.70;;;6.10;59.10;5.80;95588.00;;;;5072831;28;20244;-80
2023/01/20 00:02:55;;;;;;;3.67;3.37;;;6.00;59.00;5.80;95589.00;;;;5079743;28;20251;-82
2023/01/20 00:05:23;;;;;;;5.27;4.03;;;6.10;59.10;5.80;95589.00;;;;5076524;28;20199;-82
2023/01/20 00:07:50;;;;;;;4.63;3.90;;;6.10;59.10;5.80;95594.00;;;;5061112;28;20189;-81
2023/01/20 00:10:18;;;;;;;5.20;4.17;;;6.10;59.20;5.80;95595.00;;;;5060027;28;20304;-82
2023/01/20 00:12:47;;;;;;;5.23;4.43;;;6.10;59.20;5.80;95591.00;;;;5060272;28;20239;-81
2023/01/20 00:15:14;;;;;;;4.80;4.17;;;6.10;59.20;5.80;95590.00;;;;5061608;28;20215;-82
2023/01/20 00:17:44;;;;;;;6.30;4.23;;;6.10;59.20;5.80;95592.00;;;;5069052;28;20798;-81
2023/01/20 00:20:12;;;;;;;4.27;3.87;;;6.10;59.20;5.80;95596.00;;;;5079741;28;20212;-81
2023/01/20 00:22:43;;;;;;;3.87;3.47;;;6.10;59.20;5.80;95588.00;;;;5063299;28;20252;-81
2023/01/20 00:25:11;;;;;;;4.27;3.87;;;6.10;59.20;5.80;95587.00;;;;5059695;28;20185;-80
2023/01/20 00:27:38;;;;;;;4.17;3.77;;;6.10;59.20;5.80;95590.00;;;;5059670;28;20196;-82
2023/01/20 00:30:07;;;;;;;5.63;4.13;;;6.10;59.10;5.80;95590.00;;;;5059221;28;20262;-81
2023/01/20 00:32:38;;;;;;;6.23;3.90;;;6.10;59.00;5.70;95589.00;;;;5059792;28;20234;-81
2023/01/20 00:35:07;;;;;;;3.70;3.40;;;6.10;59.00;5.70;95598.00;;;;5060356;28;20185;-80
2023/01/20 00:37:34;;;;;;;5.50;4.03;;;6.10;59.10;5.70;95597.00;;;;5076978;28;20664;-81
2023/01/20 00:40:03;;;;;;;3.60;3.30;;;6.10;59.10;5.70;95605.00;;;;5077223;28;20200;-81
2023/01/20 00:42:38;;;;;;;4.53;4.10;;;6.10;59.00;5.70;95599.00;;;;5078674;28;20617;-81
2023/01/20 00:45:08;;;;;;;5.13;3.67;;;6.00;59.00;5.70;95601.00;;;;5079875;28;20672;-82
2023/01/20 00:47:35;;;;;;;5.23;3.80;;;6.00;59.00;5.70;95607.00;;;;5078364;28;20231;-81
2023/01/20 00:50:05;;;;;;;5.50;4.23;;;6.00;59.20;5.70;95608.00;;;;5079204;28;20273;-82
2023/01/20 00:52:33;;;;;;;4.60;4.20;;;6.00;59.10;5.70;95604.00;;;;5071321;28;20205;-82
2023/01/20 00:55:09;;;;;;;5.90;4.20;;;6.00;59.20;5.70;95605.00;;;;5079625;28;20246;-82
2023/01/20 00:57:36;;;;;;;10.10;4.47;;;6.00;59.20;5.70;95613.00;;;;5080554;28;20199;-82
2023/01/20 01:00:05;;;;;;;5.00;4.13;;;6.00;59.40;5.70;95618.00;;;;5079811;28;20245;-82
2023/01/20 01:02:39;;;;;;;4.30;3.87;;;6.00;59.40;5.60;95613.00;;;;5079620;28;20199;-80
2023/01/20 01:05:07;;;;;;;4.50;3.97;;;6.00;59.30;5.60;95622.00;;;;5077449;28;20240;-80
2023/01/20 01:07:34;;;;;;;5.00;4.07;;;6.00;59.20;5.60;95618.00;;;;5068320;28;20212;-81
2023/01/20 01:10:03;;;;;;;4.83;4.13;;;6.00;59.20;5.60;95624.00;;;;5070838;28;20224;-82
2023/01/20 01:12:31;;;;;;;5.17;4.03;;;5.90;59.30;5.60;95628.00;;;;5077555;28;20235;-82
2023/01/20 01:14:58;;;;;;;4.60;3.70;;;5.90;59.30;5.60;95631.00;;;;5078131;28;20633;-81
2023/01/20 01:17:25;;;;;;;5.73;4.20;;;5.90;59.20;5.60;95635.00;;;;5077967;28;20204;-82
2023/01/20 01:19:53;;;;;;;8.30;4.07;;;5.90;59.20;5.60;95630.00;;;;5078036;28;20238;-82
2023/01/20 01:22:21;;;;;;;4.90;4.00;;;5.90;59.20;5.60;95629.00;;;;5077641;28;20222;-81
2023/01/20 01:24:48;;;;;;;5.73;4.67;;;5.90;59.40;5.60;95632.00;;;;5077590;28;20251;-82
2023/01/20 01:27:17;;;;;;;4.87;3.87;;;5.90;59.40;5.60;95635.00;;;;5077260;28;20196;-80
2023/01/20 01:29:47;;;;;;;4.63;4.20;;;5.90;59.30;5.50;95632.00;;;;5078222;28;20279;-80
2023/01/20 01:32:14;;;;;;;5.37;4.30;;;5.90;59.20;5.50;95628.00;;;;5078000;28;20191;-82
2023/01/20 01:34:41;;;;;;;4.37;3.97;;;5.80;59.10;5.50;95635.00;;;;5077900;28;20258;-80
2023/01/20 01:37:09;;;;;;;5.77;4.70;;;5.80;59.10;5.50;95635.00;;;;5078979;28;20287;-81
2023/01/20 01:39:36;;;;;;;7.50;4.57;;;5.80;59.10;5.50;95634.00;;;;5078761;28;20196;-81
2023/01/20 01:42:31;;;;;;;6.53;4.20;;;5.80;59.10;5.50;95626.00;;;;5075499;28;20258;-80
2023/01/20 01:45:32;;;;;;;4.50;4.00;;;5.80;59.20;5.40;95632.00;;;;5076681;28;20255;-82
2023/01/20 01:48:15;;;;;;;4.10;3.70;;;5.80;59.20;5.40;95624.00;;;;5077041;28;20249;-82
2023/01/20 01:50:48;;;;;;;4.70;4.20;;;5.80;59.20;5.40;95631.00;;;;5076194;28;20243;-81
2023/01/20 01:53:16;;;;;;;7.87;4.03;;;5.80;59.40;5.40;95618.00;;;;5077252;28;20660;-81
2023/01/20 01:55:49;;;;;;;4.97;4.43;;;5.70;59.50;5.40;95628.00;;;;5077246;28;20249;-81
2023/01/20 01:58:26;;;;;;;4.27;3.87;;;5.70;59.70;5.40;95633.00;;;;5077022;28;20202;-81
2023/01/20 02:00:56;;;;;;;5.80;4.27;;;5.70;59.60;5.40;95629.00;;;;5075891;28;20243;-81
2023/01/20 02:03:27;;;;;;;4.43;4.07;;;5.70;59.50;5.30;95634.00;;;;5076146;28;20216;-82
2023/01/20 02:05:57;;;;;;;6.20;4.50;;;5.70;60.10;5.30;95631.00;;;;5078813;28;20199;-81
2023/01/20 02:08:26;;;;;;;5.07;4.40;;;5.70;59.50;5.30;95631.00;;;;5078607;28;20242;-80
2023/01/20 02:10:56;;;;;;;5.27;4.27;;;5.70;59.50;5.30;95640.00;;;;5082939;28;20285;-81
2023/01/20 02:13:23;;;;;;;4.27;3.87;;;5.70;59.60;5.30;95629.00;;;;5078203;28;20215;-80
2023/01/20 02:16:12;;;;;;;5.77;4.20;;;5.70;59.70;5.30;95633.00;;;;5078553;28;20196;-81
2023/01/20 02:19:08;;;;;;;4.50;3.90;;;5.70;60.20;5.30;95631.00;;;;5064407;28;20197;-79
2023/01/20 02:22:11;;;;;;;5.90;4.20;;;5.70;59.60;5.30;95633.00;;;;5055148;28;20216;-80
2023/01/20 02:25:35;;;;;;;4.53;4.07;;;5.70;59.70;5.40;95633.00;;;;5056857;28;20299;-79
2023/01/20 02:29:12;;;;;;;4.23;3.83;;;5.70;59.80;5.40;95641.00;;;;5058239;28;20200;-81
2023/01/20 02:32:26;;;;;;;4.40;4.00;;;5.70;59.80;5.30;95647.00;;;;5079315;28;20280;-80
2023/01/20 02:35:00;;;;;;;4.23;3.60;;;5.70;60.00;5.40;95650.00;;;;5080601;28;20219;-80
2023/01/20 02:37:40;;;;;;;5.10;4.30;;;5.70;59.90;5.40;95659.00;;;;5080567;28;20203;-81
2023/01/20 02:40:27;;;;;;;4.67;4.20;;;5.70;59.90;5.40;95665.00;;;;5080378;28;20219;-80
2023/01/20 02:43:10;;;;;;;4.47;3.80;;;5.70;59.80;5.40;95659.00;;;;5080702;28;20637;-81
2023/01/20 02:45:45;;;;;;;4.97;4.37;;;5.70;59.70;5.40;95663.00;;;;5078852;28;20184;-81
2023/01/20 02:48:23;;;;;;;4.63;3.87;;;5.70;59.70;5.40;95658.00;;;;5076296;28;20572;-82
2023/01/20 02:51:02;;;;;;;4.20;3.80;;;5.70;59.70;5.40;95661.00;;;;5077733;28;20245;-82
2023/01/20 02:53:37;;;;;;;8.67;3.97;;;5.70;59.80;5.40;95662.00;;;;5077088;28;20598;-81
2023/01/20 02:56:08;;;;;;;4.67;3.67;;;5.70;59.90;5.40;95662.00;;;;5077133;28;20192;-81
2023/01/20 02:58:50;;;;;;;4.23;3.83;;;5.70;60.00;5.40;95661.00;;;;5077514;28;20203;-82
2023/01/20 03:01:26;;;;;;;4.03;3.63;;;5.70;60.00;5.40;95659.00;;;;5077437;28;20258;-81
2023/01/20 03:04:02;;;;;;;3.97;3.57;;;5.70;59.90;5.40;95664.00;;;;5056051;28;20274;-82
2023/01/20 03:06:37;;;;;;;4.37;3.70;;;5.70;59.80;5.40;95668.00;;;;5056771;28;20250;-80
2023/01/20 03:09:24;;;;;;;;;;;;;;;;;;;;;
2023/01/20 03:12:21;;;;;;;4.13;3.70;;;5.70;59.80;5.40;95672.00;;;;5018900;28;20219;-80
2023/01/20 03:14:59;;;;;;;4.00;3.53;;;5.80;59.90;5.40;95675.00;;;;5078030;28;20222;-81
2023/01/20 03:17:33;;;;;;;4.00;3.60;;;5.70;59.80;5.40;95679.00;;;;5077843;28;20204;-81
2023/01/20 03:20:14;;;;;;;4.20;3.77;;;5.70;59.80;5.40;95679.00;;;;5077402;28;20188;-79
2023/01/20 03:22:49;;;;;;;4.30;3.90;;;5.70;59.70;5.30;95685.00;;;;5073715;28;20260;-81
2023/01/20 03:25:19;;;;;;;4.10;3.50;;;5.70;59.60;5.30;95691.00;;;;5063359;28;20214;-80
2023/01/20 03:28:01;;;;;;;4.17;3.77;;;5.70;60.10;5.30;95691.00;;;;5073515;28;20235;-81
2023/01/20 03:30:28;;;;;;;4.07;3.67;;;5.70;59.40;5.30;95691.00;;;;5056109;28;20316;-81
2023/01/20 03:32:56;;;;;;;4.87;3.33;;;5.60;59.30;5.20;95693.00;;;;5064179;28;20200;-81
2023/01/20 03:35:27;;;;;;;5.13;3.73;;;5.70;59.30;5.20;95696.00;;;;5075178;28;20192;-81
2023/01/20 03:37:55;;;;;;;3.80;3.50;;;5.60;59.30;5.10;95696.00;;;;5075354;28;20184;-81
2023/01/20 03:40:28;;;;;;;4.87;3.87;;;5.60;59.30;5.10;95703.00;;;;5075453;28;20282;-81
2023/01/20 03:43:07;;;;;;;4.87;3.90;;;5.50;59.40;5.10;95701.00;;;;5075300;28;20193;-81
2023/01/20 03:45:46;;;;;;;4.30;3.90;;;5.50;59.60;5.00;95698.00;;;;5065524;28;20224;-82
2023/01/20 03:48:21;;;;;;;4.60;3.97;;;5.50;59.70;5.00;95702.00;;;;5071312;28;20226;-81
2023/01/20 03:51:02;;;;;;;4.77;4.37;;;5.40;59.60;5.00;95698.00;;;;5075973;28;20292;-81
2023/01/20 03:53:44;;;;;;;4.53;3.90;;;5.40;59.60;5.00;95697.00;;;;5076893;28;20228;-81
2023/01/20 03:56:26;;;;;;;5.30;3.70;;;5.40;59.60;4.90;95700.00;;;;5070912;28;20625;-82
2023/01/20 03:59:00;;;;;;;4.40;4.00;;;5.40;59.80;4.90;95704.00;;;;5077049;28;20219;-81
2023/01/20 04:01:39;;;;;;;5.37;4.10;;;5.30;59.90;4.90;95707.00;;;;5077834;28;20867;-82
2023/01/20 04:04:20;;;;;;;4.53;4.13;;;5.30;60.00;4.90;95709.00;;;;5057011;28;20220;-82
2023/01/20 04:06:59;;;;;;;4.67;4.27;;;5.30;60.00;4.90;95715.00;;;;5086712;28;20445;-81
2023/01/20 04:09:34;;;;;;;6.57;4.33;;;5.30;60.20;4.90;95722.00;;;;5073880;28;20483;-82
2023/01/20 04:12:02;;;;;;;4.70;4.07;;;5.30;60.20;4.90;95720.00;;;;5075112;28;20897;-82
2023/01/20 04:14:31;;;;;;;4.33;4.03;;;5.20;60.10;4.80;95721.00;;;;5076505;28;20477;-82
2023/01/20 04:16:59;;;;;;;6.10;4.20;;;5.20;60.20;4.80;95720.00;;;;5077305;28;20510;-81
2023/01/20 04:19:27;;;;;;;4.73;4.20;;;5.20;60.30;4.80;95726.00;;;;5077322;28;20426;-81
2023/01/20 04:22:23;;;;;;;6.07;4.47;;;5.20;60.30;4.80;95726.00;;;;5078798;28;20299;-82
2023/01/20 04:25:04;;;;;;;4.47;3.77;;;5.20;60.50;4.80;95734.00;;;;5076926;28;20214;-82
2023/01/20 04:27:34;;;;;;;5.30;3.80;;;5.20;60.50;4.90;95732.00;;;;5068951;28;20459;-81
2023/01/20 04:30:07;;;;;;;4.20;3.80;;;5.20;60.40;4.90;95731.00;;;;5076539;28;20226;-82
2023/01/20 04:32:37;;;;;;;5.00;3.60;;;5.20;60.30;4.80;95729.00;;;;5076482;28;20265;-80
2023/01/20 04:35:05;;;;;;;4.63;3.90;;;5.20;60.30;4.80;95737.00;;;;5068508;28;20434;-82
2023/01/20 04:37:33;;;;;;;3.83;3.53;;;5.20;60.30;4.80;95735.00;;;;5078456;28;20245;-82
2023/01/20 04:40:00;;;;;;;5.37;3.80;;;5.20;60.50;4.80;95743.00;;;;5076506;28;20189;-82
2023/01/20 04:42:28;;;;;;;3.70;3.40;;;5.20;60.40;4.80;95742.00;;;;5077753;28;20241;-81
2023/01/20 04:44:58;;;;;;;3.87;3.57;;;5.20;60.40;4.80;95743.00;;;;5077900;28;20869;-82
2023/01/20 04:47:26;;;;;;;6.07;3.70;;;5.20;60.30;4.80;95752.00;;;;5077491;28;20279;-81
2023/01/20 04:49:53;;;;;;;5.77;3.93;;;5.20;60.30;4.80;95749.00;;;;5078746;28;20204;-81
2023/01/20 04:52:20;;;;;;;5.30;3.90;;;5.20;60.40;4.70;95752.00;;;;5077337;28;20431;-81
2023/01/20 04:54:51;;;;;;;4.07;3.57;;;5.10;60.30;4.70;95756.00;;;;5079396;28;20715;-82
2023/01/20 04:57:24;;;;;;;6.13;3.87;;;5.10;60.20;4.70;95754.00;;;;5078224;28;20200;-80
2023/01/20 04:59:53;;;;;;;4.70;4.23;;;5.10;60.20;4.60;95752.00;;;;5078968;28;20231;-82
2023/01/20 05:02:24;;;;;;;3.93;3.33;;;5.10;60.20;4.60;95759.00;;;;5078489;28;20220;-82
2023/01/20 05:04:51;;;;;;;4.97;3.73;;;5.00;60.10;4.60;95761.00;;;;5095139;28;20207;-82
2023/01/20 05:07:19;;;;;;;4.30;3.90;;;5.00;60.20;4.50;95767.00;;;;5078621;28;20551;-82
2023/01/20 05:09:46;;;;;;;4.97;3.83;;;5.00;60.20;4.50;95775.00;;;;5066869;28;20243;-81
2023/01/20 05:12:15;;;;;;;4.40;4.00;;;4.90;60.20;4.50;95776.00;;;;5058396;28;20247;-82
2023/01/20 05:14:43;;;;;;;4.43;3.87;;;4.90;60.30;4.50;95780.00;;;;5065007;28;20462;-82
2023/01/20 05:17:10;;;;;;;6.03;4.27;;;4.90;60.40;4.40;95781.00;;;;5063514;28;20449;-82
2023/01/20 05:19:37;;;;;;;4.63;4.23;;;4.90;60.60;4.40;95789.00;;;;5076728;28;20219;-82
2023/01/20 05:22:04;;;;;;;4.97;4.07;;;4.90;60.80;4.40;95781.00;;;;5074955;28;20251;-83
2023/01/20 05:24:31;;;;;;;4.40;4.00;;;4.80;60.80;4.40;95787.00;;;;5075740;28;20482;-83
2023/01/20 05:27:04;;;;;;;7.50;4.13;;;4.80;60.80;4.40;95787.00;;;;5075569;28;20487;-84
2023/01/20 05:29:33;;;;;;;4.03;3.67;;;4.80;60.80;4.40;95786.00;;;;5074939;28;20227;-83
2023/01/20 05:32:01;;;;;;;4.13;3.73;;;4.80;60.90;4.40;95786.00;;;;5074821;28;20216;-83
2023/01/20 05:34:28;;;;;;;4.40;4.00;;;4.80;61.10;4.40;95795.00;;;;5076047;28;20780;-82
2023/01/20 05:36:55;;;;;;;4.17;3.77;;;4.80;61.30;4.40;95801.00;;;;5076238;28;20192;-83
2023/01/20 05:39:53;;;;;;;8.23;4.30;;;4.80;61.40;4.40;95800.00;;;;5076031;28;20489;-82
2023/01/20 05:42:24;;;;;;;4.97;4.20;;;4.80;61.40;4.40;95795.00;;;;5070135;28;20488;-82
2023/01/20 05:44:52;;;;;;;5.10;4.63;;;4.80;61.40;4.40;95800.00;;;;5064680;28;20228;-82
2023/01/20 05:47:20;;;;;;;4.33;3.93;;;4.80;61.40;4.40;95808.00;;;;5066121;28;21213;-83
2023/01/20 05:50:13;;;;;;;5.30;4.17;;;4.80;61.40;4.40;95814.00;;;;5060118;28;20446;-82
2023/01/20 05:52:55;;;;;;;4.90;4.20;;;4.80;61.40;4.40;95817.00;;;;5072918;28;20943;-82
2023/01/20 05:55:38;;;;;;;7.13;4.00;;;4.80;61.50;4.40;95820.00;;;;5079044;28;20481;-82
2023/01/20 05:58:12;;;;;;;7.63;4.43;;;4.80;61.70;4.40;95813.00;;;;5077833;28;20460;-83
2023/01/20 06:00:47;;;;;;;4.87;4.37;;;4.80;61.60;4.40;95826.00;;;;5076881;28;20537;-83
2023/01/20 06:03:22;;;;;;;6.53;5.07;;;4.80;61.70;4.40;95819.00;;;;5078593;28;20452;-83
2023/01/20 06:09:09;;;;;;;8.10;5.93;;;4.80;61.80;4.40;95829.00;;;;5038055;28;20506;-83
2023/01/20 06:11:41;;;;;;;11.03;6.73;;;4.80;61.60;4.40;95831.00;;;;5075037;28;20489;-83
2023/01/20 06:14:21;;;;;;;12.13;7.20;;;4.80;61.80;4.40;95833.00;;;;5062000;28;20451;-83
2023/01/20 06:16:58;;;;;;;9.43;7.10;;;4.80;61.90;4.40;95829.00;;;;5075346;28;20450;-83
2023/01/20 06:19:37;;;;;;;9.13;6.80;;;4.80;61.70;4.40;95834.00;;;;5077107;28;20457;-81
2023/01/20 06:22:08;;;;;;;7.60;6.17;;;4.80;61.60;4.40;95835.00;;;;5066503;28;20450;-82
2023/01/20 06:24:35;;;;;;;8.27;5.90;;;4.80;61.70;4.40;95834.00;;;;5077272;28;20470;-81
2023/01/20 06:27:09;;;;;;;6.00;5.40;;;4.80;61.60;4.40;95837.00;;;;5071965;28;20204;-81
2023/01/20 06:29:42;;;;;;;5.77;5.23;;;4.80;61.70;4.50;95835.00;;;;5078384;28;20556;-81
2023/01/20 06:32:16;;;;;;;7.50;5.20;;;4.80;61.60;4.50;95843.00;;;;5076449;28;20204;-82
2023/01/20 06:34:51;;;;;;;9.80;5.73;;;4.80;61.50;4.40;95842.00;;;;5078134;28;20196;-81
2023/01/20 06:37:33;;;;;;;7.37;6.53;;;4.80;61.60;4.50;95844.00;;;;5076253;28;21009;-80
2023/01/20 06:40:00;;;;;;;8.73;5.33;;;4.80;61.60;4.40;95848.00;;;;5068335;28;20453;-81
2023/01/20 06:42:27;;;;;;;5.77;5.17;;;4.80;61.50;4.40;95851.00;;;;5076324;28;20242;-81
2023/01/20 06:45:01;;;;;;;6.40;4.90;;;4.80;61.70;4.40;95855.00;;;;5076621;28;20744;-82
2023/01/20 06:47:41;;;;;;;7.33;5.20;;;4.80;61.80;4.50;95854.00;;;;5074848;28;20446;-83
2023/01/20 06:50:17;;;;;;;5.53;5.03;;;4.80;61.90;4.50;95859.00;;;;5077193;28;20461;-81
2023/01/20 06:52:52;;;;;;;5.67;4.93;;;4.80;61.90;4.50;95859.00;;;;5077445;28;20446;-82
2023/01/20 06:55:28;;;;;;;5.17;4.70;;;4.80;61.90;4.50;95861.00;;;;5076622;28;20582;-82
2023/01/20 06:58:04;;;;;;;7.27;5.00;;;4.90;61.80;4.50;95873.00;;;;5077320;28;20623;-81
2023/01/20 07:00:34;;;;;;;6.10;5.20;;;4.80;61.60;4.50;95879.00;;;;5076426;28;20219;-82
2023/01/20 07:03:05;;;;;;;8.40;6.27;;;4.80;61.50;4.40;95883.00;;;;5077172;28;20726;-82
2023/01/20 07:05:35;;;;;;;11.57;7.07;;;4.80;61.50;4.40;95880.00;;;;5077315;28;20273;-82
2023/01/20 07:08:08;;;;;;;14.37;7.90;;;4.80;61.50;4.40;95885.00;;;;5078102;28;20206;-82
2023/01/20 07:10:52;;;;;;;11.63;6.93;;;4.80;61.60;4.40;95882.00;;;;5074805;28;20226;-82
2023/01/20 07:13:30;;;;;;;8.73;6.37;;;4.80;61.80;4.50;95889.00;;;;5076246;28;20235;-80
2023/01/20 07:15:59;;;;;;;7.20;5.70;;;4.80;61.90;4.50;95894.00;;;;5077787;28;20961;-81
2023/01/20 07:18:28;;;;;;;8.03;6.40;;;4.80;61.80;4.60;95898.00;;;;5078083;28;20457;-82
2023/01/20 07:20:56;;;;;;;7.70;6.00;;;4.80;61.90;4.70;95900.00;;;;5078343;28;20220;-82
2023/01/20 07:23:26;;;;;;;7.23;6.37;;;4.90;61.90;4.70;95906.00;;;;5078132;28;20437;-82
2023/01/20 07:26:00;;;;;;;7.37;6.43;;;4.90;61.80;4.80;95914.00;;;;5077313;28;20244;-81
2023/01/20 07:28:28;;;;;;;7.97;6.90;;;4.90;62.10;4.80;95916.00;;;;5077513;28;20438;-82
2023/01/20 07:30:55;;;;;;;6.70;6.00;;;4.90;62.30;4.80;95922.00;;;;5077217;28;20455;-82
2023/01/20 07:33:23;;;;;;;5.90;5.30;;;4.90;62.20;4.90;95926.00;;;;5080514;28;20910;-82
2023/01/20 07:36:01;;;;;;;6.90;5.50;;;5.00;62.10;4.90;95933.00;;;;5083702;28;20200;-80
2023/01/20 07:41:31;;;;;;;6.07;5.30;;;5.00;62.10;5.00;95933.00;;;;5059500;28;20716;-82
2023/01/20 07:43:58;;;;;;;7.47;5.07;;;5.10;62.20;5.00;95954.00;;;;5059924;28;20431;-81
2023/01/20 07:46:30;;;;;;;8.77;5.77;;;5.10;62.20;5.00;95956.00;;;;5059577;28;20542;-83
2023/01/20 07:48:59;;;;;;;7.37;5.60;;;5.10;62.20;5.00;95959.00;;;;5060257;28;20282;-83
2023/01/20 07:51:39;;;;;;;8.37;6.30;;;5.10;62.20;5.00;95953.00;;;;5059385;28;20560;-83
2023/01/20 07:54:18;;;;;;;8.83;7.40;;;5.20;62.30;5.10;95955.00;;;;5059926;28;20315;-83
2023/01/20 07:56:50;;;;;;;10.47;7.00;;;5.20;62.20;5.10;95962.00;;;;5061968;28;20253;-83
2023/01/20 07:59:17;;;;;;;9.57;6.27;;;5.20;62.20;5.10;95962.00;;;;5080762;28;20234;-83
2023/01/20 08:01:52;;;;;;;9.83;6.97;;;5.20;62.20;5.20;95977.00;;;;5076774;28;20730;-83
2023/01/20 08:04:19;;;;;;;10.33;6.63;;;5.30;62.20;5.20;95970.00;;;;5060693;28;20208;-82
2023/01/20 08:06:48;;;;;;;8.00;6.47;;;5.30;62.20;5.20;95978.00;;;;5080551;28;20261;-82
2023/01/20 08:09:15;;;;;;;8.70;6.00;;;5.30;62.20;5.20;95976.00;;;;5079386;28;20192;-81
2023/01/20 08:11:42;;;;;;;9.13;6.50;;;5.30;62.20;5.20;95965.00;;;;5081421;28;20232;-83
2023/01/20 08:14:12;;;;;;;8.23;5.87;;;5.30;62.30;5.30;95985.00;;;;5081387;28;20232;-81
2023/01/20 08:16:39;;;;;;;7.17;5.73;;;5.30;62.30;5.30;95983.00;;;;5081088;28;20265;-81
2023/01/20 08:19:07;;;;;;;9.07;6.50;;;5.40;62.50;5.30;95988.00;;;;5079662;28;20924;-82
2023/01/20 08:21:37;;;;;;;7.13;6.13;;;5.40;62.50;5.40;95987.00;;;;5079961;28;20595;-82
2023/01/20 08:30:08;;;;;;;6.53;5.37;;;5.50;62.40;5.50;96001.00;;;;5081036;28;20898;-82
2023/01/20 08:32:40;;;;;;;6.07;5.47;;;5.60;62.50;5.60;96003.00;;;;5080019;28;20185;-80
2023/01/20 08:35:10;;;;;;;5.80;5.20;;;5.60;62.30;5.60;95994.00;;;;5079885;28;20206;-82
2023/01/20 08:37:37;;;;;;;6.73;5.53;;;5.60;62.30;5.60;96004.00;;;;5079508;28;20243;-83
2023/01/20 08:40:17;;;;;;;6.30;5.43;;;5.70;62.40;5.70;96003.00;;;;5079346;28;20226;-80
2023/01/20 08:42:49;;;;;;;5.83;5.23;;;5.70;62.30;5.70;96020.00;;;;5078234;28;20238;-82
2023/01/20 08:45:16;;;;;;;5.97;5.37;;;5.70;62.30;5.80;96012.00;;;;5074987;28;20589;-82
2023/01/20 08:47:48;;;;;;;6.10;5.50;;;5.80;62.30;5.80;96020.00;;;;5078119;28;20248;-80
2023/01/20 08:50:16;;;;;;;6.40;5.23;;;5.80;62.40;5.80;96019.00;;;;5076295;28;20231;-84
2023/01/20 08:52:43;;;;;;;5.53;5.03;;;5.90;62.40;5.90;96018.00;;;;5076609;28;20204;-83
2023/01/20 08:55:20;;;;;;;5.10;4.70;;;5.90;62.30;5.90;96034.00;;;;5075414;28;20195;-84
2023/01/20 08:57:47;;;;;;;6.03;5.17;;;5.90;62.40;6.00;96035.00;;;;5075862;28;20257;-84
2023/01/20 09:00:24;;;;;;;8.27;5.70;;;6.00;62.40;6.00;96037.00;;;;5075233;28;20685;-84
2023/01/20 09:02:55;;;;;;;7.37;6.13;;;6.00;62.30;6.10;96041.00;;;;5074966;28;20535;-84
2023/01/20 09:05:28;;;;;;;6.53;5.90;;;6.10;62.30;6.10;96050.00;;;;5076436;28;20210;-83
2023/01/20 09:08:00;;;;;;;6.23;5.63;;;6.10;62.20;6.20;96047.00;;;;5075370;28;20249;-84
2023/01/20 09:10:34;;;;;;;7.93;6.13;;;6.20;62.00;6.20;96049.00;;;;5074618;28;20212;-83
2023/01/20 09:13:03;;;;;;;6.53;5.83;;;6.20;62.00;6.30;96065.00;;;;5075518;28;20541;-84
2023/01/20 09:15:36;;;;;;;7.07;6.17;;;6.30;62.00;6.30;96057.00;;;;5074997;28;20261;-84
2023/01/20 09:18:06;;;;;;;6.50;5.90;;;6.30;61.90;6.30;96064.00;;;;5075053;28;20636;-84
2023/01/20 09:20:38;;;;;;;8.20;5.87;;;6.40;61.70;6.40;96064.00;;;;5073783;28;20224;-84
2023/01/20 09:23:09;;;;;;;8.00;6.13;;;6.40;61.80;6.40;96063.00;;;;5074729;28;20282;-84
2023/01/20 09:25:40;;;;;;;7.10;6.37;;;6.40;61.80;6.40;96067.00;;;;5074739;28;20231;-84
2023/01/20 09:28:09;;;;;;;9.73;5.97;;;6.50;61.70;6.50;96062.00;;;;5074749;28;20207;-84
2023/01/20 09:30:38;;;;;;;9.93;7.57;;;6.50;61.70;6.50;96074.00;;;;5073373;28;20216;-84
2023/01/20 09:33:13;;;;;;;8.03;7.00;;;6.50;61.70;6.60;96070.00;;;;5074453;28;20923;-84
2023/01/20 09:35:56;;;;;;;8.73;6.63;;;6.60;61.80;6.60;96079.00;;;;5074030;28;20223;-84
2023/01/20 09:44:49;;;;;;;6.47;5.87;;;6.70;61.50;6.80;96084.00;;;;5073868;28;20683;-84
2023/01/20 09:47:50;;;;;;;9.93;6.23;;;6.80;61.50;6.80;96089.00;;;;5073232;28;20269;-84
2023/01/20 09:54:03;;;;;;;6.70;5.30;;;6.90;61.30;6.90;96097.00;;;;5073693;28;20183;-84
2023/01/20 09:56:49;;;;;;;6.27;5.53;;;7.00;61.30;7.00;96095.00;;;;5071582;28;20192;-84
2023/01/20 09:59:27;;;;;;;6.57;5.70;;;7.00;61.40;7.00;96093.00;;;;5073027;28;20196;-83
2023/01/20 10:02:03;;;;;;;6.43;5.33;;;7.10;62.00;7.10;96093.00;;;;5052949;28;20227;-84
2023/01/20 10:04:41;;;;;;;8.67;5.57;;;7.10;61.10;7.10;96091.00;;;;5053043;28;20219;-83
2023/01/20 10:07:13;;;;;;;6.97;5.57;;;7.10;60.90;7.10;96091.00;;;;5052626;28;20211;-84
2023/01/20 10:09:51;;;;;;;6.57;5.53;;;7.20;60.90;7.10;96097.00;;;;5053362;28;20642;-83
2023/01/20 10:12:48;;;;;;;6.43;5.37;;;7.20;61.00;7.20;96095.00;;;;5053466;28;20212;-83
2023/01/20 10:15:25;;;;;;;7.10;6.40;;;7.20;60.90;7.20;96097.00;;;;5053189;28;20181;-83
2023/01/20 10:17:58;;;;;;;5.83;5.23;;;7.30;60.80;7.30;96108.00;;;;5053604;28;20191;-83
2023/01/20 10:20:38;;;;;;;6.63;5.53;;;7.30;60.60;7.30;96097.00;;;;5053041;28;20239;-84
2023/01/20 10:23:20;;;;;;;5.87;5.27;;;7.40;60.50;7.30;96102.00;;;;5052040;28;20216;-84
2023/01/20 10:25:54;;;;;;;5.57;5.00;;;7.40;60.40;7.30;96105.00;;;;5051419;28;20270;-83
2023/01/20 10:28:29;;;;;;;5.40;4.87;;;7.40;60.20;7.30;96111.00;;;;5051125;28;20241;-84
2023/01/20 10:31:07;;;;;;;7.17;5.00;;;7.40;59.90;7.30;96107.00;;;;5051687;28;20758;-84
2023/01/20 10:33:47;;;;;;;6.73;5.17;;;7.40;59.80;7.20;96105.00;;;;5052135;28;20212;-84
2023/01/20 10:36:24;;;;;;;6.83;5.17;;;7.40;59.90;7.30;96113.00;;;;5052759;28;20212;-84
2023/01/20 10:39:02;;;;;;;7.20;5.63;;;7.40;60.10;7.20;96105.00;;;;5053247;28;20645;-82
2023/01/20 10:41:43;;;;;;;7.03;5.57;;;7.40;60.20;7.30;96102.00;;;;5052677;28;20742;-84
2023/01/20 10:44:23;;;;;;;6.37;5.13;;;7.40;60.20;7.30;96111.00;;;;5053392;28;20650;-84
2023/01/20 10:47:24;;;;;;;5.90;5.30;;;7.40;60.30;7.30;96114.00;;;;5053085;28;20235;-84
2023/01/20 10:50:27;;;;;;;6.70;5.97;;;7.40;60.30;7.30;96121.00;;;;5052097;28;20227;-84
2023/01/20 10:53:23;;;;;;;5.17;4.70;;;7.40;60.40;7.30;96112.00;;;;5052275;28;20215;-84
2023/01/20 10:56:08;;;;;;;5.87;5.00;;;7.40;60.40;7.30;96111.00;;;;5051451;28;20232;-83
2023/01/20 10:58:40;;;;;;;5.33;4.90;;;7.40;60.50;7.30;96111.00;;;;5051658;28;20197;-84
2023/01/20 11:01:18;;;;;;;5.80;5.00;;;7.40;60.60;7.30;96110.00;;;;5051244;28;20225;-84
2023/01/20 11:03:53;;;;;;;7.00;6.30;;;7.40;60.70;7.30;96104.00;;;;5051671;28;20211;-84
2023/01/20 11:06:27;;;;;;;6.27;5.70;;;7.40;60.80;7.30;96098.00;;;;5051312;28;20227;-82
2023/01/20 11:09:08;;;;;;;6.03;5.43;;;7.40;61.00;7.20;96100.00;;;;5054456;28;20234;-84
2023/01/20 11:11:53;;;;;;;7.07;6.40;;;7.40;61.50;7.20;96101.00;;;;5055729;28;20220;-83
2023/01/20 11:14:21;;;;;;;8.83;6.33;;;7.30;61.80;7.20;96109.00;;;;5056417;28;20181;-84
2023/01/20 11:17:05;;;;;;;7.93;6.70;;;7.30;61.70;7.10;96102.00;;;;5055999;28;20241;-84
2023/01/20 11:19:54;;;;;;;8.60;7.37;;;7.30;62.00;7.10;96105.00;;;;5056048;28;20201;-85
2023/01/20 11:22:31;;;;;;;7.47;6.60;;;7.30;62.70;7.10;96113.00;;;;5054479;28;20189;-83
2023/01/20 11:25:02;;;;;;;8.23;7.37;;;7.30;62.70;7.10;96110.00;;;;5067393;28;20694;-82
2023/01/20 11:27:42;;;;;;;9.63;7.40;;;7.20;62.60;7.20;96102.00;;;;5075752;28;20224;-83
2023/01/20 11:30:27;;;;;;;9.37;7.20;;;7.20;62.90;7.20;96108.00;;;;5075874;28;20273;-84
2023/01/20 11:33:25;;;;;;;8.93;7.37;;;7.30;63.30;7.20;96108.00;;;;5074055;28;20702;-81
2023/01/20 11:36:05;;;;;;;9.23;6.43;;;7.30;63.80;7.20;96109.00;;;;5073612;28;20192;-84
2023/01/20 11:38:45;;;;;;;9.03;7.57;;;7.30;63.80;7.20;96115.00;;;;5074488;28;20550;-83
2023/01/20 11:42:14;;;;;;;9.07;7.30;;;7.30;63.70;7.20;96116.00;;;;5074572;28;20585;-81
2023/01/20 11:44:43;;;;;;;7.87;6.67;;;7.30;64.20;7.20;96108.00;;;;5055194;28;20188;-84
2023/01/20 11:47:23;;;;;;;7.63;6.83;;;7.30;63.70;7.30;96103.00;;;;5067677;28;20224;-84
2023/01/20 11:50:28;;;;;;;7.47;6.67;;;7.30;63.90;7.30;96109.00;;;;5074754;28;20645;-84
2023/01/20 11:53:16;;;;;;;8.50;6.53;;;7.40;64.40;7.40;96117.00;;;;5074501;28;20619;-83
2023/01/20 11:55:52;;;;;;;6.67;6.07;;;7.40;64.40;7.40;96113.00;;;;5068430;28;20672;-84
2023/01/20 11:58:22;;;;;;;8.27;7.20;;;7.40;64.20;7.40;96115.00;;;;5051854;28;20207;-84
2023/01/20 12:00:58;;;;;;;9.57;7.33;;;7.40;64.00;7.40;96112.00;;;;5058435;28;20221;-83
2023/01/20 12:04:28;;;;;;;9.60;7.77;;;7.50;63.70;7.30;96113.00;;;;5069681;28;20246;-85
2023/01/20 12:07:05;;;;;;;8.97;7.07;;;7.50;63.90;7.30;96113.00;;;;5054042;28;20224;-83